Time;durP1;ratioP1;P1;durP2;ratioP2;P2;SDS_P1;SDS_P2;PMS_P1;PMS_P2;Temp;Humidity;BMP_temperature;BMP_pressure;BME280_temperature;BME280_humidity;BME280_pressure;Samples;Min_cycle;Max_cycle;Signal;HPM_P1;HPM_P2
2023/08/30 00:00:07;;;;;;;;;;;;;;;16.89;53.33;99784.38;5074586;28;1119;-58
2023/08/30 00:02:33;;;;;;;;;;;;;;;16.84;53.47;99781.66;5079313;28;1102;-57
2023/08/30 00:04:59;;;;;;;;;;;;;;;16.86;53.32;99779.44;5064058;28;1030;-58
2023/08/30 00:07:25;;;;;;;;;;;;;;;16.86;53.31;99782.19;5068014;28;1079;-58
2023/08/30 00:09:50;;;;;;;;;;;;;;;16.88;53.12;99778.03;5065592;28;1107;-57
2023/08/30 00:12:16;;;;;;;;;;;;;;;16.81;53.51;99783.06;5078717;28;1166;-57
2023/08/30 00:14:41;;;;;;;;;;;;;;;16.80;53.29;99781.44;5078973;28;1902;-56
2023/08/30 00:17:07;;;;;;;;;;;;;;;16.81;53.14;99777.59;5079184;28;1162;-57
2023/08/30 00:19:33;;;;;;;;;;;;;;;16.82;53.38;99775.66;5077224;28;1022;-57
2023/08/30 00:21:58;;;;;;;;;;;;;;;16.78;53.20;99772.69;5059413;28;1326;-58
2023/08/30 00:24:24;;;;;;;;;;;;;;;16.83;53.24;99771.78;5059974;28;1060;-55
2023/08/30 00:26:49;;;;;;;;;;;;;;;16.77;53.19;99776.53;5070648;28;2543;-55
2023/08/30 00:29:15;;;;;;;;;;;;;;;16.79;53.27;99779.81;5059995;28;1147;-56
2023/08/30 00:31:41;;;;;;;;;;;;;;;16.74;53.14;99772.47;5078715;28;1027;-56
2023/08/30 00:34:06;;;;;;;;;;;;;;;16.73;53.30;99765.38;5064931;28;1959;-55
2023/08/30 00:36:32;;;;;;;;;;;;;;;16.72;53.11;99771.16;5054535;28;1195;-56
2023/08/30 00:38:57;;;;;;;;;;;;;;;16.70;53.39;99779.66;5060226;28;1365;-55
2023/08/30 00:41:23;;;;;;;;;;;;;;;16.73;53.12;99775.50;5047989;28;1438;-56
2023/08/30 00:43:49;;;;;;;;;;;;;;;16.71;53.07;99773.06;5065197;28;1023;-55
2023/08/30 00:46:14;;;;;;;;;;;;;;;16.68;53.27;99767.38;5071209;28;1090;-57
2023/08/30 00:48:40;;;;;;;;;;;;;;;16.71;53.18;99766.78;5041786;28;1127;-56
2023/08/30 00:51:08;;;;;;;;;;;;;;;16.74;53.19;99766.16;5053523;28;1225;-55
2023/08/30 00:53:33;;;;;;;;;;;;;;;16.74;52.93;99769.72;5037207;28;1973;-55
2023/08/30 00:55:59;;;;;;;;;;;;;;;16.67;53.33;99772.03;5053552;28;2534;-57
2023/08/30 00:58:26;;;;;;;;;;;;;;;16.70;53.31;99765.94;5053985;28;1048;-58
2023/08/30 01:00:52;;;;;;;;;;;;;;;16.73;53.06;99754.38;5064770;28;1047;-57
2023/08/30 01:03:18;;;;;;;;;;;;;;;16.70;53.12;99754.16;5060368;28;1039;-57
2023/08/30 01:05:43;;;;;;;;;;;;;;;16.70;53.32;99760.44;5071534;28;1162;-57
2023/08/30 01:08:11;;;;;;;;;;;;;;;16.62;53.32;99755.66;5058576;28;1182;-57
2023/08/30 01:10:39;;;;;;;;;;;;;;;16.68;53.39;99757.19;5053663;28;1091;-58
2023/08/30 01:13:06;;;;;;;;;;;;;;;16.73;52.92;99759.03;5061232;28;1055;-58
2023/08/30 01:15:32;;;;;;;;;;;;;;;16.67;53.28;99769.28;5078027;28;1973;-58
2023/08/30 01:17:58;;;;;;;;;;;;;;;16.67;53.22;99765.75;5064492;28;1058;-57
2023/08/30 01:20:24;;;;;;;;;;;;;;;16.64;53.26;99766.34;5052667;28;1075;-57
2023/08/30 01:22:55;;;;;;;;;;;;;;;16.70;53.27;99770.63;5053723;28;1000;-57
2023/08/30 01:25:37;;;;;;;;;;;;;;;16.70;53.21;99763.19;5060866;28;1981;-57
2023/08/30 01:28:04;;;;;;;;;;;;;;;16.63;53.36;99764.72;5076498;28;1569;-58
2023/08/30 01:30:30;;;;;;;;;;;;;;;16.66;53.22;99770.44;5077867;28;1022;-57
2023/08/30 01:32:56;;;;;;;;;;;;;;;16.70;53.14;99771.44;5043040;28;1476;-57
2023/08/30 01:35:22;;;;;;;;;;;;;;;16.67;53.28;99771.22;5060065;28;1905;-56
2023/08/30 01:37:48;;;;;;;;;;;;;;;16.69;53.01;99769.81;5058144;28;1264;-55
2023/08/30 01:40:13;;;;;;;;;;;;;;;16.66;53.24;99775.91;5059946;28;1055;-57
2023/08/30 01:42:39;;;;;;;;;;;;;;;16.66;53.18;99778.66;5046394;28;1052;-57
2023/08/30 01:45:05;;;;;;;;;;;;;;;16.66;53.33;99781.41;5053246;28;1164;-57
2023/08/30 01:47:31;;;;;;;;;;;;;;;16.72;53.17;99780.19;5070819;28;1063;-57
2023/08/30 01:49:56;;;;;;;;;;;;;;;16.66;53.21;99775.09;5065513;28;925;-58
2023/08/30 01:52:23;;;;;;;;;;;;;;;16.63;53.30;99779.22;5045666;28;1302;-59
2023/08/30 01:54:50;;;;;;;;;;;;;;;16.66;53.18;99773.16;5039394;28;1902;-58
2023/08/30 01:57:16;;;;;;;;;;;;;;;16.62;53.22;99769.38;5052982;28;2507;-58
2023/08/30 01:59:42;;;;;;;;;;;;;;;16.63;53.49;99773.75;5052444;28;1350;-58
2023/08/30 02:02:07;;;;;;;;;;;;;;;16.64;53.22;99758.91;5066131;28;1137;-58
2023/08/30 02:04:33;;;;;;;;;;;;;;;16.61;53.39;99767.75;5076760;28;972;-57
2023/08/30 02:07:00;;;;;;;;;;;;;;;16.64;53.31;99766.34;5058271;28;1031;-57
2023/08/30 02:09:26;;;;;;;;;;;;;;;16.62;53.49;99768.56;5039163;28;1110;-57
2023/08/30 02:11:51;;;;;;;;;;;;;;;16.64;53.24;99767.16;5057446;28;1170;-57
2023/08/30 02:14:17;;;;;;;;;;;;;;;16.60;53.40;99764.16;5058602;28;1910;-57
2023/08/30 02:16:44;;;;;;;;;;;;;;;16.57;53.40;99764.78;5057905;28;1272;-57
2023/08/30 02:19:10;;;;;;;;;;;;;;;16.65;53.24;99765.22;5030487;28;1180;-56
2023/08/30 02:21:37;;;;;;;;;;;;;;;16.67;53.14;99758.31;5058577;28;1012;-57
2023/08/30 02:24:03;;;;;;;;;;;;;;;16.63;53.35;99764.72;5076789;28;1030;-56
2023/08/30 02:26:30;;;;;;;;;;;;;;;16.63;53.14;99762.75;5065076;28;1824;-56
2023/08/30 02:28:55;;;;;;;;;;;;;;;16.66;53.15;99755.88;5038577;28;1619;-57
2023/08/30 02:31:21;;;;;;;;;;;;;;;16.60;53.53;99761.44;5070337;28;1123;-57
2023/08/30 02:33:46;;;;;;;;;;;;;;;16.65;53.23;99755.06;5067698;28;1993;-56
2023/08/30 02:36:12;;;;;;;;;;;;;;;16.60;53.40;99755.13;5076612;28;1113;-56
2023/08/30 02:38:37;;;;;;;;;;;;;;;16.59;53.48;99748.84;5057486;28;1119;-55
2023/08/30 02:41:03;;;;;;;;;;;;;;;16.56;53.48;99748.59;5058746;28;1519;-57
2023/08/30 02:43:28;;;;;;;;;;;;;;;16.61;53.46;99754.03;5065096;28;999;-55
2023/08/30 02:45:54;;;;;;;;;;;;;;;16.61;53.15;99756.78;5066566;28;996;-55
2023/08/30 02:48:20;;;;;;;;;;;;;;;16.59;53.24;99753.50;5056030;28;1087;-56
2023/08/30 02:50:45;;;;;;;;;;;;;;;16.61;53.40;99751.28;5067138;28;857;-55
2023/08/30 02:53:11;;;;;;;;;;;;;;;16.64;53.04;99747.94;5044102;28;1629;-59
2023/08/30 02:55:36;;;;;;;;;;;;;;;16.65;53.33;99755.06;5038003;28;1914;-57
2023/08/30 02:58:02;;;;;;;;;;;;;;;16.64;53.19;99753.44;5069584;28;984;-56
2023/08/30 03:00:28;;;;;;;;;;;;;;;16.53;53.51;99751.97;5063702;28;1063;-56
2023/08/30 03:02:55;;;;;;;;;;;;;;;16.61;53.35;99751.28;5057923;28;1410;-59
2023/08/30 03:05:21;;;;;;;;;;;;;;;16.65;53.35;99738.59;5062815;28;1150;-59
2023/08/30 03:07:46;;;;;;;;;;;;;;;16.55;53.53;99742.31;5065300;28;1095;-60
2023/08/30 03:10:12;;;;;;;;;;;;;;;16.62;53.45;99747.44;5069586;28;1146;-59
2023/08/30 03:12:38;;;;;;;;;;;;;;;16.54;53.31;99739.88;5066419;28;1020;-59
2023/08/30 03:15:04;;;;;;;;;;;;;;;16.59;53.18;99746.09;5075390;28;1918;-58
2023/08/30 03:17:29;;;;;;;;;;;;;;;16.62;53.36;99747.44;5065329;28;1131;-59
2023/08/30 03:19:58;;;;;;;;;;;;;;;16.62;53.15;99735.63;5042358;28;1155;-60
2023/08/30 03:22:24;;;;;;;;;;;;;;;16.62;53.13;99747.44;5046993;28;1210;-59
2023/08/30 03:24:50;;;;;;;;;;;;;;;16.72;53.01;99746.44;5059007;28;949;-59
2023/08/30 03:27:16;;;;;;;;;;;;;;;16.60;53.39;99749.66;5075512;28;2651;-59
2023/08/30 03:29:42;;;;;;;;;;;;;;;16.56;53.55;99738.47;5057603;28;1128;-58
2023/08/30 03:32:07;;;;;;;;;;;;;;;16.61;53.46;99751.28;5066275;28;1099;-59
2023/08/30 03:34:33;;;;;;;;;;;;;;;16.65;53.37;99748.75;5057826;28;1906;-58
2023/08/30 03:36:58;;;;;;;;;;;;;;;16.63;53.14;99745.50;5043916;28;1609;-58
2023/08/30 03:39:24;;;;;;;;;;;;;;;16.59;53.30;99753.50;5061911;28;1161;-56
2023/08/30 03:41:50;;;;;;;;;;;;;;;16.68;53.35;99757.19;5048587;28;1406;-54
2023/08/30 03:44:15;;;;;;;;;;;;;;;16.61;53.68;99754.03;5057570;28;1198;-55
2023/08/30 03:46:41;;;;;;;;;;;;;;;16.65;53.48;99760.56;5075681;28;1015;-55
2023/08/30 03:49:06;;;;;;;;;;;;;;;16.66;53.40;99756.69;5039893;28;1142;-55
2023/08/30 03:51:32;;;;;;;;;;;;;;;16.56;53.50;99752.19;5055897;28;1194;-56
2023/08/30 03:53:58;;;;;;;;;;;;;;;16.65;55.43;99755.06;5056855;28;1910;-55
2023/08/30 03:56:23;;;;;;;;;;;;;;;16.81;55.93;99752.06;5073658;28;2242;-55
2023/08/30 03:58:49;;;;;;;;;;;;;;;16.82;55.90;99751.75;5061972;28;1082;-55
2023/08/30 04:01:15;;;;;;;;;;;;;;;16.79;55.19;99762.50;5045776;28;1431;-56
2023/08/30 04:03:40;;;;;;;;;;;;;;;16.75;54.63;99757.63;5073749;28;1055;-56
2023/08/30 04:06:07;;;;;;;;;;;;;;;16.75;54.36;99754.09;5045433;28;1177;-54
2023/08/30 04:08:32;;;;;;;;;;;;;;;16.71;54.24;99762.09;5068715;28;1083;-58
2023/08/30 04:10:58;;;;;;;;;;;;;;;16.72;54.03;99754.69;5055499;28;1027;-60
2023/08/30 04:13:23;;;;;;;;;;;;;;;16.68;54.12;99759.94;5037160;28;1917;-60
2023/08/30 04:15:49;;;;;;;;;;;;;;;16.68;54.03;99759.94;5069763;28;844;-58
2023/08/30 04:18:15;;;;;;;;;;;;;;;16.67;53.95;99769.28;5070070;28;1169;-58
2023/08/30 04:20:44;;;;;;;;;;;;;;;16.67;53.72;99774.78;5067448;28;1066;-61
2023/08/30 04:23:09;;;;;;;;;;;;;;;16.65;53.71;99774.28;5040318;28;1425;-60
2023/08/30 04:25:35;;;;;;;;;;;;;;;16.67;53.70;99783.00;5047991;28;1859;-56
2023/08/30 04:28:01;;;;;;;;;;;;;;;16.64;53.81;99778.13;5041167;28;1222;-59
2023/08/30 04:30:26;;;;;;;;;;;;;;;16.67;53.76;99780.28;5065941;28;1051;-59
2023/08/30 04:32:52;;;;;;;;;;;;;;;16.67;53.61;99788.50;5061025;28;1123;-59
2023/08/30 04:35:18;;;;;;;;;;;;;;;16.69;53.69;99791.78;5037521;28;1906;-57
2023/08/30 04:37:43;;;;;;;;;;;;;;;16.70;53.79;99796.13;5076308;28;1035;-55
2023/08/30 04:40:09;;;;;;;;;;;;;;;16.72;53.91;99804.09;5055699;28;1220;-57
2023/08/30 04:42:35;;;;;;;;;;;;;;;16.67;54.16;99810.47;5065274;28;1083;-57
2023/08/30 04:45:02;;;;;;;;;;;;;;;17.39;54.86;99806.56;5060863;28;1223;-60
2023/08/30 04:47:29;;;;;;;;;;;;;;;16.73;54.43;99809.28;5043112;28;1242;-56
2023/08/30 04:49:54;;;;;;;;;;;;;;;16.57;52.82;99796.91;5052025;28;1163;-56
2023/08/30 04:52:20;;;;;;;;;;;;;;;16.54;51.58;99800.25;5043542;28;1120;-58
2023/08/30 04:54:46;;;;;;;;;;;;;;;16.50;50.79;99801.94;5049911;28;1909;-57
2023/08/30 04:57:16;;;;;;;;;;;;;;;16.47;49.99;99803.34;5044289;28;1776;-58
2023/08/30 04:59:42;;;;;;;;;;;;;;;16.53;49.79;99793.94;5067314;28;1393;-58
2023/08/30 05:02:08;;;;;;;;;;;;;;;16.51;49.40;99800.81;5052327;28;2463;-55
2023/08/30 05:04:39;;;;;;;;;;;;;;;16.53;49.20;99793.13;5047197;28;1495;-57
2023/08/30 05:07:05;;;;;;;;;;;;;;;16.53;48.78;99796.66;5058444;28;1158;-55
2023/08/30 05:09:32;;;;;;;;;;;;;;;17.33;51.00;99798.72;5051301;28;1213;-54
2023/08/30 05:11:58;;;;;;;;;;;;;;;17.04;50.57;99800.59;5065550;28;2088;-57
2023/08/30 05:14:24;;;;;;;;;;;;;;;16.83;50.04;99804.72;5049974;28;1907;-56
2023/08/30 05:16:49;;;;;;;;;;;;;;;16.92;49.00;99802.97;5056175;28;1215;-53
2023/08/30 05:19:16;;;;;;;;;;;;;;;16.82;48.84;99798.44;5059549;28;1329;-56
2023/08/30 05:21:42;;;;;;;;;;;;;;;16.79;48.41;99803.69;5055609;28;1194;-57
2023/08/30 05:24:08;;;;;;;;;;;;;;;16.92;48.07;99805.72;5046532;28;1409;-56
2023/08/30 05:26:34;;;;;;;;;;;;;;;16.89;47.74;99811.81;5043648;28;1072;-57
2023/08/30 05:28:59;;;;;;;;;;;;;;;16.97;47.40;99813.06;5061285;28;1151;-58
2023/08/30 05:31:25;;;;;;;;;;;;;;;17.42;48.51;99819.69;5059482;28;1228;-55
2023/08/30 05:34:14;;;;;;;;;;;;;;;17.27;49.00;99809.78;5048592;28;1894;-55
2023/08/30 05:37:05;;;;;;;;;;;;;;;17.04;48.87;99810.75;5037174;28;1152;-53
2023/08/30 05:39:51;;;;;;;;;;;;;;;17.10;48.19;99804.88;5077185;28;971;-58
2023/08/30 05:42:17;;;;;;;;;;;;;;;17.13;47.68;99808.94;5058722;28;1265;-56
2023/08/30 05:44:42;;;;;;;;;;;;;;;17.12;47.53;99806.50;5065829;28;1082;-57
2023/08/30 05:47:14;;;;;;;;;;;;;;;17.03;47.44;99807.19;5045295;28;1272;-58
2023/08/30 05:49:40;;;;;;;;;;;;;;;17.03;47.13;99809.94;5075680;28;932;-55
2023/08/30 05:52:06;;;;;;;;;;;;;;;17.00;47.09;99806.97;5054548;28;1130;-57
2023/08/30 05:54:33;;;;;;;;;;;;;;;16.99;47.07;99811.66;5051333;28;2347;-57
2023/08/30 05:56:59;;;;;;;;;;;;;;;16.98;46.92;99815.50;5052357;28;1177;-57
2023/08/30 05:59:26;;;;;;;;;;;;;;;17.02;47.19;99813.78;5042147;28;1390;-57
2023/08/30 06:01:51;;;;;;;;;;;;;;;17.02;47.24;99816.53;5074552;28;1207;-57
2023/08/30 06:04:17;;;;;;;;;;;;;;;17.07;47.20;99818.41;5063221;28;1403;-58
2023/08/30 06:06:42;;;;;;;;;;;;;;;17.08;47.16;99817.25;5057279;28;1078;-61
2023/08/30 06:09:08;;;;;;;;;;;;;;;17.07;47.09;99821.16;5074619;28;1051;-57
2023/08/30 06:11:34;;;;;;;;;;;;;;;17.13;46.88;99822.69;5065637;28;1154;-60
2023/08/30 06:13:59;;;;;;;;;;;;;;;17.03;46.93;99815.44;5065492;28;1906;-57
2023/08/30 06:16:25;;;;;;;;;;;;;;;17.07;47.10;99821.16;5069419;28;1123;-59
2023/08/30 06:18:50;;;;;;;;;;;;;;;17.08;46.92;99817.25;5066185;28;1161;-58
2023/08/30 06:21:16;;;;;;;;;;;;;;;17.12;47.05;99820.25;5061155;28;1159;-58
2023/08/30 06:23:42;;;;;;;;;;;;;;;17.21;46.79;99819.25;5057669;28;1082;-56
2023/08/30 06:26:07;;;;;;;;;;;;;;;17.19;46.75;99826.16;5070253;28;1070;-56
2023/08/30 06:28:33;;;;;;;;;;;;;;;17.16;46.77;99835.81;5068742;28;895;-57
2023/08/30 06:30:58;;;;;;;;;;;;;;;17.20;46.77;99827.78;5076842;28;1169;-56
2023/08/30 06:33:24;;;;;;;;;;;;;;;17.20;46.91;99830.53;5077086;28;1137;-61
2023/08/30 06:35:50;;;;;;;;;;;;;;;17.22;46.84;99836.53;5056952;28;1914;-55
2023/08/30 06:38:16;;;;;;;;;;;;;;;17.16;47.12;99833.06;5064911;28;1092;-56
2023/08/30 06:40:45;;;;;;;;;;;;;;;17.15;47.01;99838.88;5076388;28;1051;-57
2023/08/30 06:43:11;;;;;;;;;;;;;;;17.28;46.73;99844.41;5076616;28;1030;-58
2023/08/30 06:45:37;;;;;;;;;;;;;;;17.24;46.62;99840.63;5075931;28;1336;-56
2023/08/30 06:48:03;;;;;;;;;;;;;;;17.25;46.81;99846.91;5073256;28;1324;-56
2023/08/30 06:50:28;;;;;;;;;;;;;;;17.42;48.87;99841.69;5074936;28;1300;-56
2023/08/30 06:52:54;;;;;;;;;;;;;;;17.62;50.70;99845.19;5075820;28;1445;-58
2023/08/30 06:55:19;;;;;;;;;;;;;;;17.54;50.47;99848.63;5073503;28;1979;-58
2023/08/30 06:57:47;;;;;;;;;;;;;;;17.50;49.60;99847.59;5066078;28;1039;-57
2023/08/30 07:00:12;;;;;;;;;;;;;;;17.55;48.71;99847.53;5064768;28;1363;-54
2023/08/30 07:02:38;;;;;;;;;;;;;;;17.51;48.33;99852.00;5066119;28;1024;-55
2023/08/30 07:05:04;;;;;;;;;;;;;;;17.50;48.09;99853.09;5069400;28;1131;-58
2023/08/30 07:07:30;;;;;;;;;;;;;;;17.49;47.73;99857.78;5075993;28;1174;-58
2023/08/30 07:09:56;;;;;;;;;;;;;;;17.41;48.00;99856.53;5059250;28;1082;-59
2023/08/30 07:12:22;;;;;;;;;;;;;;;17.52;47.47;99850.88;5065473;28;1144;-55
2023/08/30 07:14:47;;;;;;;;;;;;;;;17.53;47.32;99858.81;5064159;28;1992;-56
2023/08/30 07:17:13;;;;;;;;;;;;;;;17.54;47.21;99862.38;5060068;28;1143;-55
2023/08/30 07:19:39;;;;;;;;;;;;;;;17.49;47.22;99860.53;5057901;28;1270;-61
2023/08/30 07:22:04;;;;;;;;;;;;;;;17.49;47.36;99854.22;5075591;28;1213;-60
2023/08/30 07:24:30;;;;;;;;;;;;;;;17.48;47.39;99856.16;5076184;28;1114;-58
2023/08/30 07:26:55;;;;;;;;;;;;;;;17.53;47.13;99861.56;5076180;28;1178;-53
2023/08/30 07:29:21;;;;;;;;;;;;;;;17.51;47.14;99866.53;5074256;28;1166;-58
2023/08/30 07:31:47;;;;;;;;;;;;;;;17.58;46.65;99866.16;5067493;28;1324;-59
2023/08/30 07:34:12;;;;;;;;;;;;;;;17.58;47.58;99866.16;5060482;28;1890;-56
2023/08/30 07:36:38;;;;;;;;;;;;;;;17.55;50.65;99866.75;5059987;28;994;-52
2023/08/30 07:39:03;;;;;;;;;;;;;;;17.77;49.24;99869.66;5059091;28;1269;-58
2023/08/30 07:41:29;;;;;;;;;;;;;;;17.78;48.23;99865.78;5070553;28;968;-56
2023/08/30 07:43:55;;;;;;;;;;;;;;;17.75;47.91;99871.91;5056110;28;1058;-59
2023/08/30 07:46:20;;;;;;;;;;;;;;;17.66;47.88;99868.22;5064193;28;1509;-61
2023/08/30 07:48:46;;;;;;;;;;;;;;;17.66;47.50;99865.47;5059227;28;1115;-58
2023/08/30 07:51:11;;;;;;;;;;;;;;;17.59;47.43;99863.09;5075832;28;1090;-56
2023/08/30 07:53:37;;;;;;;;;;;;;;;17.67;47.18;99869.00;5058325;28;1985;-57
2023/08/30 07:56:02;;;;;;;;;;;;;;;17.73;46.95;99865.06;5069282;28;1583;-57
2023/08/30 07:58:28;;;;;;;;;;;;;;;17.68;47.13;99871.44;5066801;28;1123;-58
2023/08/30 08:00:53;;;;;;;;;;;;;;;17.68;46.98;99860.47;5069951;28;1148;-60
2023/08/30 08:03:20;;;;;;;;;;;;;;;17.64;47.05;99858.63;5072435;28;1173;-58
2023/08/30 08:05:46;;;;;;;;;;;;;;;17.68;46.82;99862.41;5075572;28;883;-61
2023/08/30 08:08:11;;;;;;;;;;;;;;;17.74;46.63;99856.50;5075299;28;1300;-60
2023/08/30 08:10:37;;;;;;;;;;;;;;;17.70;46.75;99852.72;5076181;28;1297;-60
2023/08/30 08:13:03;;;;;;;;;;;;;;;17.69;46.44;99850.28;5066081;28;1162;-56
2023/08/30 08:15:30;;;;;;;;;;;;;;;17.80;46.30;99854.47;5079396;28;1969;-56
2023/08/30 08:17:56;;;;;;;;;;;;;;;17.68;46.65;99845.91;5079221;28;887;-58
2023/08/30 08:20:22;;;;;;;;;;;;;;;17.75;46.28;99849.91;5079111;28;1042;-59
2023/08/30 08:22:47;;;;;;;;;;;;;;;17.75;46.51;99844.41;5073819;28;1267;-58
2023/08/30 08:25:13;;;;;;;;;;;;;;;17.74;46.58;99841.94;5077967;28;1348;-58
2023/08/30 08:27:39;;;;;;;;;;;;;;;17.84;46.32;99841.75;5073254;28;1040;-60
2023/08/30 08:30:05;;;;;;;;;;;;;;;17.62;46.74;99836.94;5075472;28;844;-59
2023/08/30 08:32:30;;;;;;;;;;;;;;;17.68;46.65;99849.47;5064905;28;1159;-56
2023/08/30 08:34:56;;;;;;;;;;;;;;;17.71;46.48;99848.88;5064841;28;1918;-58
2023/08/30 08:37:22;;;;;;;;;;;;;;;17.74;46.46;99848.25;5078128;28;1148;-59
2023/08/30 08:39:49;;;;;;;;;;;;;;;17.69;46.53;99847.53;5059028;28;1165;-58
2023/08/30 08:42:20;;;;;;;;;;;;;;;17.81;46.32;99852.53;5065432;28;1030;-58
2023/08/30 08:44:50;;;;;;;;;;;;;;;17.74;46.59;99847.44;5067630;28;1113;-61
2023/08/30 08:47:19;;;;;;;;;;;;;;;17.76;46.64;99845.19;5064403;28;1310;-58
2023/08/30 08:49:44;;;;;;;;;;;;;;;17.70;46.70;99852.72;5075434;28;1215;-57
2023/08/30 08:52:10;;;;;;;;;;;;;;;17.70;46.50;99841.75;5071881;28;1136;-55
2023/08/30 08:54:39;;;;;;;;;;;;;;;17.71;46.66;99837.88;5077914;28;1902;-56
2023/08/30 08:57:05;;;;;;;;;;;;;;;17.69;46.72;99845.59;5065434;28;883;-56
2023/08/30 08:59:30;;;;;;;;;;;;;;;17.74;46.72;99840.00;5069591;28;1182;-55
2023/08/30 09:01:56;;;;;;;;;;;;;;;17.78;46.55;99849.28;5074951;28;1478;-56
2023/08/30 09:04:21;;;;;;;;;;;;;;;17.74;46.53;99841.94;5057868;28;1198;-57
2023/08/30 09:06:47;;;;;;;;;;;;;;;17.71;46.90;99837.88;5075026;28;1023;-56
2023/08/30 09:09:13;;;;;;;;;;;;;;;17.70;46.57;99849.97;5076521;28;2494;-56
2023/08/30 09:11:38;;;;;;;;;;;;;;;17.76;46.42;99846.00;5075354;28;1754;-56
2023/08/30 09:14:04;;;;;;;;;;;;;;;17.79;46.38;99844.59;5073490;28;2002;-56
2023/08/30 09:16:29;;;;;;;;;;;;;;;17.84;46.39;99838.16;5062899;28;1949;-56
2023/08/30 09:19:01;;;;;;;;;;;;;;;17.81;46.17;99833.28;5059257;28;1919;-55
2023/08/30 09:21:27;;;;;;;;;;;;;;;17.84;46.22;99838.16;5067667;28;1898;-57
2023/08/30 09:24:05;;;;;;;;;;;;;;;17.84;46.54;99840.91;5076725;28;1931;-56
2023/08/30 09:26:38;;;;;;;;;;;;;;;17.78;46.52;99840.19;5058330;28;1064;-55
2023/08/30 09:29:04;;;;;;;;;;;;;;;17.81;46.40;99836.88;5061479;28;1203;-56
2023/08/30 09:31:41;;;;;;;;;;;;;;;17.95;46.00;99834.97;5071065;28;1016;-57
2023/08/30 09:34:07;;;;;;;;;;;;;;;17.87;46.35;99838.38;5060533;28;1971;-56
2023/08/30 09:36:36;;;;;;;;;;;;;;;17.82;46.43;99832.16;5067415;28;1048;-56
2023/08/30 09:39:05;;;;;;;;;;;;;;;17.79;46.64;99822.59;5070067;28;1301;-56
2023/08/30 09:41:32;;;;;;;;;;;;;;;17.85;46.23;99828.81;5067573;28;1049;-56
2023/08/30 09:44:00;;;;;;;;;;;;;;;17.82;46.60;99832.16;5074191;28;1105;-56
2023/08/30 09:46:26;;;;;;;;;;;;;;;17.93;46.14;99834.44;5068441;28;1020;-58
2023/08/30 09:48:53;;;;;;;;;;;;;;;17.83;46.53;99836.56;5060309;28;1047;-56
2023/08/30 09:51:18;;;;;;;;;;;;;;;17.86;46.18;99834.00;5067752;28;1170;-56
2023/08/30 09:53:45;;;;;;;;;;;;;;;17.79;46.54;99828.94;5050014;28;1952;-56
2023/08/30 09:56:14;;;;;;;;;;;;;;;17.88;46.90;99836.44;5074925;28;2684;-55
2023/08/30 09:58:39;;;;;;;;;;;;;;;18.00;47.92;99835.97;5063573;28;1024;-55
2023/08/30 10:01:05;;;;;;;;;;;;;;;17.93;47.30;99828.94;5059533;28;1170;-54
2023/08/30 10:03:31;;;;;;;;;;;;;;;17.89;47.25;99825.16;5058695;28;1314;-56
2023/08/30 10:05:58;;;;;;;;;;;;;;;17.97;47.10;99829.16;5076454;28;1031;-58
2023/08/30 10:08:23;;;;;;;;;;;;;;;18.00;47.54;99828.53;5074336;28;1229;-55
2023/08/30 10:10:49;;;;;;;;;;;;;;;17.99;47.37;99826.88;5055668;28;1249;-54
2023/08/30 10:13:15;;;;;;;;;;;;;;;17.90;47.12;99831.47;5054674;28;1261;-58
2023/08/30 10:15:41;;;;;;;;;;;;;;;18.00;47.01;99835.97;5063844;28;1910;-56
2023/08/30 10:18:06;;;;;;;;;;;;;;;17.95;47.04;99832.22;5071693;28;1173;-56
2023/08/30 10:20:32;;;;;;;;;;;;;;;18.03;46.81;99825.16;5059467;28;1402;-54
2023/08/30 10:22:57;;;;;;;;;;;;;;;18.00;46.80;99820.28;5076943;28;1370;-54
2023/08/30 10:25:24;;;;;;;;;;;;;;;18.03;46.64;99829.84;5067420;28;1523;-54
2023/08/30 10:27:50;;;;;;;;;;;;;;;17.96;46.59;99827.50;5070099;28;1063;-53
2023/08/30 10:30:16;;;;;;;;;;;;;;;17.84;46.68;99827.16;5071578;28;1154;-57
2023/08/30 10:32:42;;;;;;;;;;;;;;;18.05;46.52;99827.63;5068826;28;1026;-57
2023/08/30 10:35:12;;;;;;;;;;;;;;;18.03;46.58;99825.16;5058193;28;1988;-55
2023/08/30 10:37:38;;;;;;;;;;;;;;;17.93;46.53;99811.63;5074136;28;1179;-58
2023/08/30 10:40:04;;;;;;;;;;;;;;;18.09;46.46;99821.19;5071730;28;1157;-60
2023/08/30 10:42:29;;;;;;;;;;;;;;;17.99;46.57;99829.63;5068350;28;1153;-54
2023/08/30 10:44:58;;;;;;;;;;;;;;;18.04;46.61;99813.03;5065850;28;1109;-56
2023/08/30 10:47:28;;;;;;;;;;;;;;;18.00;46.54;99814.78;5062226;28;1142;-57
2023/08/30 10:49:58;;;;;;;;;;;;;;;17.97;46.57;99812.66;5052679;28;1576;-57
2023/08/30 10:52:24;;;;;;;;;;;;;;;18.03;46.25;99811.41;5064518;28;1121;-60
2023/08/30 10:54:50;;;;;;;;;;;;;;;17.99;46.21;99817.84;5074722;28;1905;-55
2023/08/30 10:57:25;;;;;;;;;;;;;;;18.03;46.12;99805.91;5060734;28;1341;-57
2023/08/30 11:00:09;;;;;;;;;;;;;;;18.04;46.01;99807.53;5056419;28;1060;-57
2023/08/30 11:02:38;;;;;;;;;;;;;;;18.08;46.08;99808.56;5055190;28;1408;-58
2023/08/30 11:05:06;;;;;;;;;;;;;;;17.99;46.35;99807.63;5060126;28;1216;-59
2023/08/30 11:07:31;;;;;;;;;;;;;;;18.06;46.11;99808.06;5063932;28;1307;-56
2023/08/30 11:09:57;;;;;;;;;;;;;;;18.01;46.43;99805.41;5062338;28;1000;-58
2023/08/30 11:12:23;;;;;;;;;;;;;;;18.02;46.23;99803.47;5068067;28;1325;-56
2023/08/30 11:14:49;;;;;;;;;;;;;;;18.00;46.34;99797.47;5065907;28;1973;-57
2023/08/30 11:17:18;;;;;;;;;;;;;;;18.03;46.13;99800.41;5056212;28;1134;-58
2023/08/30 11:19:43;;;;;;;;;;;;;;;18.10;45.98;99808.25;5069262;28;941;-57
2023/08/30 11:22:09;;;;;;;;;;;;;;;18.04;46.05;99802.03;5072082;28;884;-60
2023/08/30 11:24:35;;;;;;;;;;;;;;;17.92;46.53;99804.47;5062654;28;1114;-56
2023/08/30 11:27:00;;;;;;;;;;;;;;;17.94;46.42;99797.56;5052233;28;1268;-61
2023/08/30 11:29:28;;;;;;;;;;;;;;;18.02;46.60;99786.97;5065353;28;1051;-57
2023/08/30 11:31:54;;;;;;;;;;;;;;;18.13;46.34;99793.88;5056251;28;1304;-57
2023/08/30 11:34:21;;;;;;;;;;;;;;;17.98;46.39;99778.53;5076379;28;1901;-57
2023/08/30 11:36:47;;;;;;;;;;;;;;;18.00;46.45;99786.47;5062024;28;1121;-57
2023/08/30 11:39:12;;;;;;;;;;;;;;;18.14;46.01;99790.00;5062549;28;1080;-57
2023/08/30 11:41:39;;;;;;;;;;;;;;;18.12;46.25;99787.56;5044455;28;1143;-59
2023/08/30 11:44:05;;;;;;;;;;;;;;;18.00;46.64;99787.25;5075836;28;1062;-59
2023/08/30 11:46:31;;;;;;;;;;;;;;;18.06;46.46;99782.47;5064255;28;1103;-60
2023/08/30 11:48:57;;;;;;;;;;;;;;;18.08;46.12;99769.25;5080583;28;1043;-67
2023/08/30 11:51:23;;;;;;;;;;;;;;;18.06;46.16;99766.78;5079450;28;1251;-61
2023/08/30 11:53:49;;;;;;;;;;;;;;;18.03;46.34;99775.66;5078178;28;1934;-61
2023/08/30 11:56:14;;;;;;;;;;;;;;;18.02;46.41;99770.44;5075915;28;1112;-65
2023/08/30 11:58:40;;;;;;;;;;;;;;;18.07;46.10;99764.84;5062140;28;1390;-63
2023/08/30 12:01:06;;;;;;;;;;;;;;;18.12;46.21;99764.75;5076521;28;1367;-59
2023/08/30 12:03:32;;;;;;;;;;;;;;;18.12;46.04;99760.06;5069639;28;1181;-58
2023/08/30 12:05:58;;;;;;;;;;;;;;;18.02;46.43;99760.28;5063633;28;1262;-58
2023/08/30 12:08:24;;;;;;;;;;;;;;;18.05;46.06;99758.84;5074785;28;1410;-58
2023/08/30 12:10:50;;;;;;;;;;;;;;;18.16;46.03;99742.91;5078681;28;1437;-56
2023/08/30 12:13:45;;;;;;;;;;;;;;;18.00;46.10;99746.00;5079117;28;1252;-58
2023/08/30 12:16:14;;;;;;;;;;;;;;;18.03;46.17;99750.88;5057582;28;1244;-58
2023/08/30 12:18:40;;;;;;;;;;;;;;;18.00;46.25;99743.25;5077733;28;1007;-63
2023/08/30 12:21:06;;;;;;;;;;;;;;;18.11;46.18;99739.16;5079138;28;1165;-62
2023/08/30 12:23:32;;;;;;;;;;;;;;;18.15;46.13;99755.06;5049395;28;1268;-60
2023/08/30 12:25:58;;;;;;;;;;;;;;;18.12;46.10;99740.78;5077889;28;1024;-58
2023/08/30 12:28:25;;;;;;;;;;;;;;;18.09;46.10;99749.66;5073260;28;1263;-55
2023/08/30 12:30:51;;;;;;;;;;;;;;;18.06;46.39;99750.28;5067986;28;1114;-55
2023/08/30 12:33:17;;;;;;;;;;;;;;;18.03;46.37;99744.59;5075712;28;1056;-63
2023/08/30 12:35:43;;;;;;;;;;;;;;;18.11;46.10;99741.91;5079064;28;1988;-61
2023/08/30 12:38:09;;;;;;;;;;;;;;;18.13;46.21;99725.91;5075984;28;1280;-61
2023/08/30 12:40:35;;;;;;;;;;;;;;;18.10;46.16;99722.97;5075928;28;1315;-61
2023/08/30 12:43:00;;;;;;;;;;;;;;;18.07;46.00;99715.34;5077583;28;1015;-60
2023/08/30 12:45:26;;;;;;;;;;;;;;;18.04;46.29;99724.22;5066135;28;1348;-58
2023/08/30 12:47:51;;;;;;;;;;;;;;;18.07;46.21;99724.38;5062813;28;1213;-59
2023/08/30 12:50:17;;;;;;;;;;;;;;;18.12;46.01;99727.03;5072165;28;1323;-58
2023/08/30 12:52:43;;;;;;;;;;;;;;;18.16;46.08;99718.16;5063694;28;1355;-58